sensor_id;sensor_type;location;lat;lon;timestamp;P1;durP1;ratioP1;P2;durP2;ratioP2
45944;SDS011;31655;48.972;10.686;2022-07-12T00:01:23;5.55;;;1.92;;
45944;SDS011;31655;48.972;10.686;2022-07-12T00:03:48;4.20;;;2.25;;
45944;SDS011;31655;48.972;10.686;2022-07-12T00:06:14;2.50;;;2.30;;
45944;SDS011;31655;48.972;10.686;2022-07-12T00:08:39;2.50;;;1.80;;
45944;SDS011;31655;48.972;10.686;2022-07-12T00:11:05;3.05;;;2.50;;
45944;SDS011;31655;48.972;10.686;2022-07-12T00:13:31;2.33;;;2.13;;
45944;SDS011;31655;48.972;10.686;2022-07-12T00:15:57;2.80;;;2.60;;
45944;SDS011;31655;48.972;10.686;2022-07-12T00:18:23;2.45;;;2.08;;
45944;SDS011;31655;48.972;10.686;2022-07-12T00:20:49;3.22;;;1.95;;
45944;SDS011;31655;48.972;10.686;2022-07-12T00:23:15;3.15;;;2.70;;
45944;SDS011;31655;48.972;10.686;2022-07-12T00:25:41;2.10;;;2.00;;
45944;SDS011;31655;48.972;10.686;2022-07-12T00:28:07;2.22;;;2.03;;
45944;SDS011;31655;48.972;10.686;2022-07-12T00:30:33;2.20;;;2.10;;
45944;SDS011;31655;48.972;10.686;2022-07-12T00:32:59;3.17;;;2.42;;
45944;SDS011;31655;48.972;10.686;2022-07-12T00:35:24;6.85;;;2.40;;
45944;SDS011;31655;48.972;10.686;2022-07-12T00:37:50;2.22;;;2.03;;
45944;SDS011;31655;48.972;10.686;2022-07-12T00:40:16;2.03;;;1.92;;
45944;SDS011;31655;48.972;10.686;2022-07-12T00:42:41;1.88;;;1.77;;
45944;SDS011;31655;48.972;10.686;2022-07-12T00:45:07;1.70;;;1.60;;
45944;SDS011;31655;48.972;10.686;2022-07-12T00:47:40;1.60;;;1.50;;
45944;SDS011;31655;48.972;10.686;2022-07-12T00:50:16;1.60;;;1.50;;
45944;SDS011;31655;48.972;10.686;2022-07-12T00:52:43;2.22;;;2.03;;
45944;SDS011;31655;48.972;10.686;2022-07-12T00:55:10;2.20;;;1.80;;
45944;SDS011;31655;48.972;10.686;2022-07-12T00:57:37;2.50;;;1.85;;
45944;SDS011;31655;48.972;10.686;2022-07-12T01:00:04;3.92;;;2.13;;
45944;SDS011;31655;48.972;10.686;2022-07-12T01:02:34;2.88;;;2.03;;
45944;SDS011;31655;48.972;10.686;2022-07-12T01:05:01;2.50;;;2.30;;
45944;SDS011;31655;48.972;10.686;2022-07-12T01:07:32;1.90;;;1.80;;
45944;SDS011;31655;48.972;10.686;2022-07-12T01:09:59;3.30;;;2.30;;
45944;SDS011;31655;48.972;10.686;2022-07-12T01:12:25;2.70;;;2.10;;
45944;SDS011;31655;48.972;10.686;2022-07-12T01:14:51;3.05;;;2.28;;
45944;SDS011;31655;48.972;10.686;2022-07-12T01:17:18;3.92;;;1.98;;
45944;SDS011;31655;48.972;10.686;2022-07-12T01:19:47;2.60;;;2.20;;
45944;SDS011;31655;48.972;10.686;2022-07-12T01:22:14;4.40;;;2.42;;
45944;SDS011;31655;48.972;10.686;2022-07-12T01:24:42;2.67;;;2.10;;
45944;SDS011;31655;48.972;10.686;2022-07-12T01:27:08;3.63;;;2.60;;
45944;SDS011;31655;48.972;10.686;2022-07-12T01:29:35;3.25;;;2.50;;
45944;SDS011;31655;48.972;10.686;2022-07-12T01:32:04;3.60;;;2.30;;
45944;SDS011;31655;48.972;10.686;2022-07-12T01:35:02;5.35;;;2.92;;
45944;SDS011;31655;48.972;10.686;2022-07-12T01:37:40;2.50;;;2.30;;
45944;SDS011;31655;48.972;10.686;2022-07-12T01:40:11;3.95;;;2.67;;
45944;SDS011;31655;48.972;10.686;2022-07-12T01:42:37;2.80;;;2.38;;
45944;SDS011;31655;48.972;10.686;2022-07-12T01:45:04;4.68;;;3.42;;
45944;SDS011;31655;48.972;10.686;2022-07-12T01:47:31;3.47;;;2.60;;
45944;SDS011;31655;48.972;10.686;2022-07-12T01:49:58;4.97;;;3.05;;
45944;SDS011;31655;48.972;10.686;2022-07-12T01:52:24;3.85;;;2.97;;
45944;SDS011;31655;48.972;10.686;2022-07-12T01:54:50;4.90;;;2.78;;
45944;SDS011;31655;48.972;10.686;2022-07-12T01:57:16;4.05;;;3.03;;
45944;SDS011;31655;48.972;10.686;2022-07-12T01:59:42;3.05;;;2.83;;
45944;SDS011;31655;48.972;10.686;2022-07-12T02:02:08;3.72;;;2.90;;
45944;SDS011;31655;48.972;10.686;2022-07-12T02:04:34;3.13;;;2.80;;
45944;SDS011;31655;48.972;10.686;2022-07-12T02:07:00;2.83;;;2.30;;
45944;SDS011;31655;48.972;10.686;2022-07-12T02:09:26;4.50;;;2.45;;
45944;SDS011;31655;48.972;10.686;2022-07-12T02:11:52;2.85;;;2.65;;
45944;SDS011;31655;48.972;10.686;2022-07-12T02:14:18;2.58;;;2.38;;
45944;SDS011;31655;48.972;10.686;2022-07-12T02:16:44;2.30;;;2.10;;
45944;SDS011;31655;48.972;10.686;2022-07-12T02:19:10;3.00;;;2.70;;
45944;SDS011;31655;48.972;10.686;2022-07-12T02:21:37;3.13;;;2.70;;
45944;SDS011;31655;48.972;10.686;2022-07-12T02:24:02;2.80;;;2.60;;
45944;SDS011;31655;48.972;10.686;2022-07-12T02:26:29;4.22;;;2.80;;
45944;SDS011;31655;48.972;10.686;2022-07-12T02:28:54;2.80;;;2.50;;
45944;SDS011;31655;48.972;10.686;2022-07-12T02:31:20;3.28;;;2.67;;
45944;SDS011;31655;48.972;10.686;2022-07-12T02:33:46;3.00;;;2.60;;
45944;SDS011;31655;48.972;10.686;2022-07-12T02:36:11;4.15;;;2.30;;
45944;SDS011;31655;48.972;10.686;2022-07-12T02:38:37;3.92;;;2.88;;
45944;SDS011;31655;48.972;10.686;2022-07-12T02:41:03;2.83;;;2.53;;
45944;SDS011;31655;48.972;10.686;2022-07-12T02:43:29;2.80;;;2.60;;
45944;SDS011;31655;48.972;10.686;2022-07-12T02:46:02;2.95;;;2.70;;
45944;SDS011;31655;48.972;10.686;2022-07-12T02:48:29;3.03;;;2.47;;
45944;SDS011;31655;48.972;10.686;2022-07-12T02:50:55;2.90;;;2.70;;
45944;SDS011;31655;48.972;10.686;2022-07-12T02:53:20;4.55;;;2.90;;
45944;SDS011;31655;48.972;10.686;2022-07-12T02:55:46;3.20;;;2.90;;
45944;SDS011;31655;48.972;10.686;2022-07-12T02:58:11;4.85;;;3.30;;
45944;SDS011;31655;48.972;10.686;2022-07-12T03:00:37;5.63;;;3.53;;
45944;SDS011;31655;48.972;10.686;2022-07-12T03:03:03;7.50;;;3.33;;
45944;SDS011;31655;48.972;10.686;2022-07-12T03:05:29;2.83;;;2.60;;
45944;SDS011;31655;48.972;10.686;2022-07-12T03:07:54;3.10;;;2.83;;
45944;SDS011;31655;48.972;10.686;2022-07-12T03:10:20;3.15;;;2.83;;
45944;SDS011;31655;48.972;10.686;2022-07-12T03:12:46;3.33;;;3.03;;
45944;SDS011;31655;48.972;10.686;2022-07-12T03:15:11;2.83;;;2.60;;
45944;SDS011;31655;48.972;10.686;2022-07-12T03:17:37;4.00;;;3.60;;
45944;SDS011;31655;48.972;10.686;2022-07-12T03:20:03;4.57;;;3.22;;
45944;SDS011;31655;48.972;10.686;2022-07-12T03:22:36;3.58;;;3.28;;
45944;SDS011;31655;48.972;10.686;2022-07-12T03:25:02;3.45;;;3.13;;
45944;SDS011;31655;48.972;10.686;2022-07-12T03:27:28;3.50;;;3.20;;
45944;SDS011;31655;48.972;10.686;2022-07-12T03:29:53;5.30;;;3.58;;
45944;SDS011;31655;48.972;10.686;2022-07-12T03:32:19;4.82;;;3.00;;
45944;SDS011;31655;48.972;10.686;2022-07-12T03:34:44;4.03;;;3.47;;
45944;SDS011;31655;48.972;10.686;2022-07-12T03:37:10;4.93;;;3.80;;
45944;SDS011;31655;48.972;10.686;2022-07-12T03:39:36;3.30;;;3.00;;
45944;SDS011;31655;48.972;10.686;2022-07-12T03:42:01;3.75;;;3.15;;
45944;SDS011;31655;48.972;10.686;2022-07-12T03:44:27;2.88;;;2.63;;
45944;SDS011;31655;48.972;10.686;2022-07-12T03:46:55;3.17;;;2.88;;
45944;SDS011;31655;48.972;10.686;2022-07-12T03:49:20;3.03;;;2.70;;
45944;SDS011;31655;48.972;10.686;2022-07-12T03:51:46;3.65;;;3.10;;
45944;SDS011;31655;48.972;10.686;2022-07-12T03:54:11;4.07;;;3.03;;
45944;SDS011;31655;48.972;10.686;2022-07-12T03:56:37;2.85;;;2.63;;
45944;SDS011;31655;48.972;10.686;2022-07-12T03:59:21;2.63;;;2.42;;
45944;SDS011;31655;48.972;10.686;2022-07-12T04:01:47;2.50;;;2.33;;
45944;SDS011;31655;48.972;10.686;2022-07-12T04:04:12;2.63;;;2.42;;
45944;SDS011;31655;48.972;10.686;2022-07-12T04:06:38;2.42;;;1.92;;
45944;SDS011;31655;48.972;10.686;2022-07-12T04:09:05;2.75;;;2.15;;
45944;SDS011;31655;48.972;10.686;2022-07-12T04:11:31;1.80;;;1.67;;
45944;SDS011;31655;48.972;10.686;2022-07-12T04:13:57;2.47;;;2.10;;
45944;SDS011;31655;48.972;10.686;2022-07-12T04:16:22;4.15;;;2.50;;
45944;SDS011;31655;48.972;10.686;2022-07-12T04:18:48;4.22;;;1.67;;
45944;SDS011;31655;48.972;10.686;2022-07-12T04:21:14;3.65;;;2.30;;
45944;SDS011;31655;48.972;10.686;2022-07-12T04:23:39;4.35;;;1.80;;
45944;SDS011;31655;48.972;10.686;2022-07-12T04:26:05;1.95;;;1.75;;
45944;SDS011;31655;48.972;10.686;2022-07-12T04:28:30;3.20;;;1.73;;
45944;SDS011;31655;48.972;10.686;2022-07-12T04:30:56;2.25;;;1.65;;
45944;SDS011;31655;48.972;10.686;2022-07-12T04:33:21;2.33;;;1.60;;
45944;SDS011;31655;48.972;10.686;2022-07-12T04:35:47;4.88;;;2.15;;
45944;SDS011;31655;48.972;10.686;2022-07-12T04:38:13;2.40;;;1.90;;
45944;SDS011;31655;48.972;10.686;2022-07-12T04:40:38;2.72;;;2.10;;
45944;SDS011;31655;48.972;10.686;2022-07-12T04:43:04;4.70;;;2.00;;
45944;SDS011;31655;48.972;10.686;2022-07-12T04:45:29;5.57;;;2.65;;
45944;SDS011;31655;48.972;10.686;2022-07-12T04:47:55;2.92;;;2.10;;
45944;SDS011;31655;48.972;10.686;2022-07-12T04:50:20;6.45;;;2.33;;
45944;SDS011;31655;48.972;10.686;2022-07-12T04:52:49;3.33;;;1.90;;
45944;SDS011;31655;48.972;10.686;2022-07-12T04:55:15;1.88;;;1.40;;
45944;SDS011;31655;48.972;10.686;2022-07-12T04:57:40;1.48;;;1.30;;
45944;SDS011;31655;48.972;10.686;2022-07-12T05:00:06;3.53;;;1.70;;
45944;SDS011;31655;48.972;10.686;2022-07-12T05:02:33;1.42;;;1.30;;
45944;SDS011;31655;48.972;10.686;2022-07-12T05:04:59;2.05;;;1.38;;
45944;SDS011;31655;48.972;10.686;2022-07-12T05:07:25;3.63;;;1.00;;
45944;SDS011;31655;48.972;10.686;2022-07-12T05:09:51;1.27;;;1.02;;
45944;SDS011;31655;48.972;10.686;2022-07-12T05:12:20;1.20;;;1.10;;
45944;SDS011;31655;48.972;10.686;2022-07-12T05:14:45;0.93;;;0.90;;
45944;SDS011;31655;48.972;10.686;2022-07-12T05:17:11;1.17;;;1.00;;
45944;SDS011;31655;48.972;10.686;2022-07-12T05:19:37;1.30;;;1.20;;
45944;SDS011;31655;48.972;10.686;2022-07-12T05:22:03;1.23;;;1.10;;
45944;SDS011;31655;48.972;10.686;2022-07-12T05:24:28;0.85;;;0.85;;
45944;SDS011;31655;48.972;10.686;2022-07-12T05:26:54;1.20;;;1.10;;
45944;SDS011;31655;48.972;10.686;2022-07-12T05:29:20;1.20;;;1.10;;
45944;SDS011;31655;48.972;10.686;2022-07-12T05:31:45;2.83;;;1.30;;
45944;SDS011;31655;48.972;10.686;2022-07-12T05:34:11;1.48;;;1.38;;
45944;SDS011;31655;48.972;10.686;2022-07-12T05:36:37;1.25;;;1.15;;
45944;SDS011;31655;48.972;10.686;2022-07-12T05:39:02;1.10;;;1.00;;
45944;SDS011;31655;48.972;10.686;2022-07-12T05:41:28;1.40;;;1.25;;
45944;SDS011;31655;48.972;10.686;2022-07-12T05:43:53;2.83;;;1.27;;
45944;SDS011;31655;48.972;10.686;2022-07-12T05:46:19;4.50;;;1.30;;
45944;SDS011;31655;48.972;10.686;2022-07-12T05:48:45;3.33;;;1.50;;
45944;SDS011;31655;48.972;10.686;2022-07-12T05:51:10;1.17;;;1.15;;
45944;SDS011;31655;48.972;10.686;2022-07-12T05:53:54;1.27;;;1.10;;
45944;SDS011;31655;48.972;10.686;2022-07-12T05:56:20;1.48;;;0.90;;
45944;SDS011;31655;48.972;10.686;2022-07-12T05:58:45;1.20;;;1.10;;
45944;SDS011;31655;48.972;10.686;2022-07-12T06:01:11;1.00;;;1.00;;
45944;SDS011;31655;48.972;10.686;2022-07-12T06:03:37;2.45;;;0.90;;
45944;SDS011;31655;48.972;10.686;2022-07-12T06:06:02;2.05;;;1.00;;
45944;SDS011;31655;48.972;10.686;2022-07-12T06:08:28;0.90;;;0.90;;
45944;SDS011;31655;48.972;10.686;2022-07-12T06:10:54;1.08;;;0.93;;
45944;SDS011;31655;48.972;10.686;2022-07-12T06:13:19;1.38;;;1.10;;
45944;SDS011;31655;48.972;10.686;2022-07-12T06:15:45;0.85;;;0.80;;
45944;SDS011;31655;48.972;10.686;2022-07-12T06:18:10;1.15;;;0.93;;
45944;SDS011;31655;48.972;10.686;2022-07-12T06:20:36;1.13;;;0.70;;
45944;SDS011;31655;48.972;10.686;2022-07-12T06:23:02;1.20;;;0.80;;
45944;SDS011;31655;48.972;10.686;2022-07-12T06:25:28;2.20;;;0.90;;
45944;SDS011;31655;48.972;10.686;2022-07-12T06:27:59;0.82;;;0.80;;
45944;SDS011;31655;48.972;10.686;2022-07-12T06:30:29;1.00;;;0.90;;
45944;SDS011;31655;48.972;10.686;2022-07-12T06:32:54;2.25;;;1.13;;
45944;SDS011;31655;48.972;10.686;2022-07-12T06:35:20;2.45;;;1.05;;
45944;SDS011;31655;48.972;10.686;2022-07-12T06:37:46;1.08;;;1.00;;
45944;SDS011;31655;48.972;10.686;2022-07-12T06:40:11;2.47;;;0.70;;
45944;SDS011;31655;48.972;10.686;2022-07-12T06:42:37;1.00;;;0.90;;
45944;SDS011;31655;48.972;10.686;2022-07-12T06:45:03;0.50;;;0.50;;
45944;SDS011;31655;48.972;10.686;2022-07-12T06:47:29;0.63;;;0.60;;
45944;SDS011;31655;48.972;10.686;2022-07-12T06:49:55;3.00;;;1.02;;
45944;SDS011;31655;48.972;10.686;2022-07-12T06:52:22;0.60;;;0.60;;
45944;SDS011;31655;48.972;10.686;2022-07-12T06:54:48;1.02;;;0.80;;
45944;SDS011;31655;48.972;10.686;2022-07-12T06:57:13;0.80;;;0.80;;
45944;SDS011;31655;48.972;10.686;2022-07-12T06:59:39;0.70;;;0.60;;
45944;SDS011;31655;48.972;10.686;2022-07-12T07:02:04;1.20;;;1.00;;
45944;SDS011;31655;48.972;10.686;2022-07-12T07:04:30;1.23;;;0.90;;
45944;SDS011;31655;48.972;10.686;2022-07-12T07:06:55;1.45;;;0.73;;
45944;SDS011;31655;48.972;10.686;2022-07-12T07:09:21;2.05;;;0.80;;
45944;SDS011;31655;48.972;10.686;2022-07-12T07:11:47;0.75;;;0.73;;
45944;SDS011;31655;48.972;10.686;2022-07-12T07:14:12;0.68;;;0.60;;
45944;SDS011;31655;48.972;10.686;2022-07-12T07:16:38;0.80;;;0.70;;
45944;SDS011;31655;48.972;10.686;2022-07-12T07:19:04;0.90;;;0.90;;
45944;SDS011;31655;48.972;10.686;2022-07-12T07:21:30;2.17;;;0.98;;
45944;SDS011;31655;48.972;10.686;2022-07-12T07:23:56;0.50;;;0.50;;
45944;SDS011;31655;48.972;10.686;2022-07-12T07:26:22;1.35;;;0.90;;
45944;SDS011;31655;48.972;10.686;2022-07-12T07:28:48;1.58;;;0.70;;
45944;SDS011;31655;48.972;10.686;2022-07-12T07:31:35;3.33;;;0.70;;
45944;SDS011;31655;48.972;10.686;2022-07-12T07:34:02;1.50;;;0.70;;
45944;SDS011;31655;48.972;10.686;2022-07-12T07:36:28;1.77;;;0.73;;
45944;SDS011;31655;48.972;10.686;2022-07-12T07:38:54;2.25;;;1.10;;
45944;SDS011;31655;48.972;10.686;2022-07-12T07:41:19;1.02;;;0.90;;
45944;SDS011;31655;48.972;10.686;2022-07-12T07:43:45;0.73;;;0.70;;
45944;SDS011;31655;48.972;10.686;2022-07-12T07:46:11;0.73;;;0.73;;
45944;SDS011;31655;48.972;10.686;2022-07-12T07:48:36;0.80;;;0.80;;
45944;SDS011;31655;48.972;10.686;2022-07-12T07:51:02;1.23;;;0.93;;
45944;SDS011;31655;48.972;10.686;2022-07-12T07:53:28;0.63;;;0.63;;
45944;SDS011;31655;48.972;10.686;2022-07-12T07:55:53;1.05;;;0.68;;
45944;SDS011;31655;48.972;10.686;2022-07-12T07:58:19;1.27;;;1.17;;
45944;SDS011;31655;48.972;10.686;2022-07-12T08:00:50;1.75;;;1.30;;
45944;SDS011;31655;48.972;10.686;2022-07-12T08:03:17;1.88;;;1.30;;
45944;SDS011;31655;48.972;10.686;2022-07-12T08:05:43;0.70;;;0.70;;
45944;SDS011;31655;48.972;10.686;2022-07-12T08:08:09;0.80;;;0.80;;
45944;SDS011;31655;48.972;10.686;2022-07-12T08:10:34;1.02;;;1.00;;
45944;SDS011;31655;48.972;10.686;2022-07-12T08:13:00;1.00;;;0.75;;
45944;SDS011;31655;48.972;10.686;2022-07-12T08:15:26;0.73;;;0.50;;
45944;SDS011;31655;48.972;10.686;2022-07-12T08:17:51;1.13;;;0.80;;
45944;SDS011;31655;48.972;10.686;2022-07-12T08:20:17;1.38;;;0.70;;
45944;SDS011;31655;48.972;10.686;2022-07-12T08:22:44;0.88;;;0.88;;
45944;SDS011;31655;48.972;10.686;2022-07-12T08:25:10;0.93;;;0.70;;
45944;SDS011;31655;48.972;10.686;2022-07-12T08:27:36;0.82;;;0.65;;
45944;SDS011;31655;48.972;10.686;2022-07-12T08:30:01;0.50;;;0.50;;
45944;SDS011;31655;48.972;10.686;2022-07-12T08:32:27;0.68;;;0.68;;
45944;SDS011;31655;48.972;10.686;2022-07-12T08:34:53;1.27;;;0.63;;
45944;SDS011;31655;48.972;10.686;2022-07-12T08:37:18;0.70;;;0.70;;
45944;SDS011;31655;48.972;10.686;2022-07-12T08:39:44;1.02;;;0.68;;
45944;SDS011;31655;48.972;10.686;2022-07-12T08:42:12;0.73;;;0.70;;
45944;SDS011;31655;48.972;10.686;2022-07-12T08:44:40;1.02;;;0.90;;
45944;SDS011;31655;48.972;10.686;2022-07-12T08:47:07;1.52;;;0.68;;
45944;SDS011;31655;48.972;10.686;2022-07-12T08:49:33;0.63;;;0.63;;
45944;SDS011;31655;48.972;10.686;2022-07-12T08:51:58;0.47;;;0.47;;
45944;SDS011;31655;48.972;10.686;2022-07-12T08:54:24;0.75;;;0.60;;
45944;SDS011;31655;48.972;10.686;2022-07-12T08:56:49;1.35;;;0.60;;
45944;SDS011;31655;48.972;10.686;2022-07-12T09:01:47;1.15;;;0.80;;
45944;SDS011;31655;48.972;10.686;2022-07-12T09:04:18;1.10;;;0.70;;
45944;SDS011;31655;48.972;10.686;2022-07-12T09:06:46;2.08;;;0.70;;
45944;SDS011;31655;48.972;10.686;2022-07-12T09:09:24;0.80;;;0.70;;
45944;SDS011;31655;48.972;10.686;2022-07-12T09:12:02;0.95;;;0.60;;
45944;SDS011;31655;48.972;10.686;2022-07-12T09:14:28;1.85;;;0.50;;
45944;SDS011;31655;48.972;10.686;2022-07-12T09:19:35;0.93;;;0.50;;
45944;SDS011;31655;48.972;10.686;2022-07-12T09:22:02;0.70;;;0.60;;
45944;SDS011;31655;48.972;10.686;2022-07-12T09:24:28;1.17;;;0.60;;
45944;SDS011;31655;48.972;10.686;2022-07-12T09:27:01;2.05;;;0.50;;
45944;SDS011;31655;48.972;10.686;2022-07-12T09:29:27;0.22;;;0.22;;
45944;SDS011;31655;48.972;10.686;2022-07-12T09:31:53;0.68;;;0.40;;
45944;SDS011;31655;48.972;10.686;2022-07-12T09:34:37;0.93;;;0.60;;
45944;SDS011;31655;48.972;10.686;2022-07-12T09:37:23;0.57;;;0.47;;
45944;SDS011;31655;48.972;10.686;2022-07-12T09:39:50;1.20;;;0.40;;
45944;SDS011;31655;48.972;10.686;2022-07-12T09:42:17;0.77;;;0.77;;
45944;SDS011;31655;48.972;10.686;2022-07-12T09:44:43;0.88;;;0.70;;
45944;SDS011;31655;48.972;10.686;2022-07-12T09:47:11;0.45;;;0.30;;
45944;SDS011;31655;48.972;10.686;2022-07-12T09:49:39;0.50;;;0.50;;
45944;SDS011;31655;48.972;10.686;2022-07-12T09:52:05;0.50;;;0.50;;
45944;SDS011;31655;48.972;10.686;2022-07-12T09:54:35;0.43;;;0.40;;
45944;SDS011;31655;48.972;10.686;2022-07-12T09:57:05;0.70;;;0.60;;
45944;SDS011;31655;48.972;10.686;2022-07-12T09:59:38;0.70;;;0.40;;
45944;SDS011;31655;48.972;10.686;2022-07-12T10:02:04;0.68;;;0.57;;
45944;SDS011;31655;48.972;10.686;2022-07-12T10:04:30;0.45;;;0.45;;
45944;SDS011;31655;48.972;10.686;2022-07-12T10:06:58;0.60;;;0.50;;
45944;SDS011;31655;48.972;10.686;2022-07-12T10:09:24;0.40;;;0.40;;
45944;SDS011;31655;48.972;10.686;2022-07-12T10:11:52;1.45;;;0.80;;
45944;SDS011;31655;48.972;10.686;2022-07-12T10:14:18;0.50;;;0.50;;
45944;SDS011;31655;48.972;10.686;2022-07-12T10:16:46;0.38;;;0.30;;
45944;SDS011;31655;48.972;10.686;2022-07-12T10:21:51;0.35;;;0.32;;
45944;SDS011;31655;48.972;10.686;2022-07-12T10:32:23;0.40;;;0.40;;
45944;SDS011;31655;48.972;10.686;2022-07-12T10:35:03;0.80;;;0.50;;
45944;SDS011;31655;48.972;10.686;2022-07-12T10:37:30;0.30;;;0.30;;
45944;SDS011;31655;48.972;10.686;2022-07-12T10:42:37;0.60;;;0.60;;
45944;SDS011;31655;48.972;10.686;2022-07-12T10:45:13;0.32;;;0.32;;
45944;SDS011;31655;48.972;10.686;2022-07-12T10:47:53;0.40;;;0.40;;
45944;SDS011;31655;48.972;10.686;2022-07-12T10:56:07;0.52;;;0.45;;
45944;SDS011;31655;48.972;10.686;2022-07-12T10:58:37;0.50;;;0.50;;
45944;SDS011;31655;48.972;10.686;2022-07-12T11:01:26;0.70;;;0.43;;
45944;SDS011;31655;48.972;10.686;2022-07-12T11:03:55;0.47;;;0.35;;
45944;SDS011;31655;48.972;10.686;2022-07-12T11:06:25;2.00;;;0.50;;
45944;SDS011;31655;48.972;10.686;2022-07-12T11:11:29;1.40;;;0.50;;
45944;SDS011;31655;48.972;10.686;2022-07-12T11:13:56;0.50;;;0.50;;
45944;SDS011;31655;48.972;10.686;2022-07-12T11:16:23;0.45;;;0.40;;
45944;SDS011;31655;48.972;10.686;2022-07-12T11:18:49;0.40;;;0.40;;
45944;SDS011;31655;48.972;10.686;2022-07-12T11:21:15;0.65;;;0.52;;
45944;SDS011;31655;48.972;10.686;2022-07-12T11:23:41;4.05;;;0.75;;
45944;SDS011;31655;48.972;10.686;2022-07-12T11:26:07;0.40;;;0.40;;
45944;SDS011;31655;48.972;10.686;2022-07-12T11:28:34;0.50;;;0.50;;
45944;SDS011;31655;48.972;10.686;2022-07-12T11:31:04;0.50;;;0.50;;
45944;SDS011;31655;48.972;10.686;2022-07-12T11:33:37;0.40;;;0.40;;
45944;SDS011;31655;48.972;10.686;2022-07-12T11:36:04;2.33;;;0.85;;
45944;SDS011;31655;48.972;10.686;2022-07-12T11:38:35;0.50;;;0.50;;
45944;SDS011;31655;48.972;10.686;2022-07-12T11:41:12;0.63;;;0.45;;
45944;SDS011;31655;48.972;10.686;2022-07-12T11:43:38;0.85;;;0.70;;
45944;SDS011;31655;48.972;10.686;2022-07-12T11:46:05;0.75;;;0.60;;
45944;SDS011;31655;48.972;10.686;2022-07-12T11:48:31;0.60;;;0.52;;
45944;SDS011;31655;48.972;10.686;2022-07-12T11:51:00;0.65;;;0.47;;
45944;SDS011;31655;48.972;10.686;2022-07-12T11:53:28;0.40;;;0.40;;
45944;SDS011;31655;48.972;10.686;2022-07-12T11:55:55;0.55;;;0.55;;
45944;SDS011;31655;48.972;10.686;2022-07-12T11:58:22;1.65;;;0.70;;
45944;SDS011;31655;48.972;10.686;2022-07-12T12:00:49;0.90;;;0.80;;
45944;SDS011;31655;48.972;10.686;2022-07-12T12:03:16;2.65;;;1.17;;
45944;SDS011;31655;48.972;10.686;2022-07-12T12:05:43;1.08;;;0.50;;
45944;SDS011;31655;48.972;10.686;2022-07-12T12:08:13;0.40;;;0.40;;
45944;SDS011;31655;48.972;10.686;2022-07-12T12:10:40;1.02;;;0.57;;
45944;SDS011;31655;48.972;10.686;2022-07-12T12:13:16;0.85;;;0.50;;
45944;SDS011;31655;48.972;10.686;2022-07-12T12:15:56;1.77;;;0.57;;
45944;SDS011;31655;48.972;10.686;2022-07-12T12:18:27;0.55;;;0.55;;
45944;SDS011;31655;48.972;10.686;2022-07-12T12:21:25;0.63;;;0.50;;
45944;SDS011;31655;48.972;10.686;2022-07-12T12:23:54;1.38;;;0.65;;
45944;SDS011;31655;48.972;10.686;2022-07-12T12:26:33;0.43;;;0.43;;
45944;SDS011;31655;48.972;10.686;2022-07-12T12:28:59;0.40;;;0.40;;
45944;SDS011;31655;48.972;10.686;2022-07-12T12:31:27;0.60;;;0.60;;
45944;SDS011;31655;48.972;10.686;2022-07-12T12:33:53;0.47;;;0.47;;
45944;SDS011;31655;48.972;10.686;2022-07-12T12:36:24;0.65;;;0.45;;
45944;SDS011;31655;48.972;10.686;2022-07-12T12:38:55;0.60;;;0.50;;
45944;SDS011;31655;48.972;10.686;2022-07-12T12:41:22;0.80;;;0.60;;
45944;SDS011;31655;48.972;10.686;2022-07-12T12:43:55;1.48;;;0.52;;
45944;SDS011;31655;48.972;10.686;2022-07-12T12:46:44;0.88;;;0.43;;
45944;SDS011;31655;48.972;10.686;2022-07-12T12:50:06;0.50;;;0.40;;
45944;SDS011;31655;48.972;10.686;2022-07-12T12:52:10;0.32;;;0.32;;
45944;SDS011;31655;48.972;10.686;2022-07-12T12:54:36;0.50;;;0.50;;
45944;SDS011;31655;48.972;10.686;2022-07-12T12:57:03;0.82;;;0.60;;
45944;SDS011;31655;48.972;10.686;2022-07-12T12:59:30;1.55;;;0.70;;
45944;SDS011;31655;48.972;10.686;2022-07-12T13:01:56;0.93;;;0.70;;
45944;SDS011;31655;48.972;10.686;2022-07-12T13:04:21;1.05;;;0.77;;
45944;SDS011;31655;48.972;10.686;2022-07-12T13:06:47;0.50;;;0.40;;
45944;SDS011;31655;48.972;10.686;2022-07-12T13:09:13;0.70;;;0.50;;
45944;SDS011;31655;48.972;10.686;2022-07-12T13:11:39;1.33;;;0.60;;
45944;SDS011;31655;48.972;10.686;2022-07-12T13:14:05;0.63;;;0.45;;
45944;SDS011;31655;48.972;10.686;2022-07-12T13:16:30;0.40;;;0.40;;
45944;SDS011;31655;48.972;10.686;2022-07-12T13:18:56;0.50;;;0.40;;
45944;SDS011;31655;48.972;10.686;2022-07-12T13:21:21;0.32;;;0.32;;
45944;SDS011;31655;48.972;10.686;2022-07-12T13:23:47;0.50;;;0.50;;
45944;SDS011;31655;48.972;10.686;2022-07-12T13:26:12;1.15;;;0.50;;
45944;SDS011;31655;48.972;10.686;2022-07-12T13:28:38;0.73;;;0.65;;
45944;SDS011;31655;48.972;10.686;2022-07-12T13:31:04;5.82;;;0.77;;
45944;SDS011;31655;48.972;10.686;2022-07-12T13:33:29;0.57;;;0.50;;
45944;SDS011;31655;48.972;10.686;2022-07-12T13:35:55;1.80;;;0.50;;
45944;SDS011;31655;48.972;10.686;2022-07-12T13:38:21;0.63;;;0.57;;
45944;SDS011;31655;48.972;10.686;2022-07-12T13:40:47;6.30;;;0.65;;
45944;SDS011;31655;48.972;10.686;2022-07-12T13:43:12;2.05;;;0.60;;
45944;SDS011;31655;48.972;10.686;2022-07-12T13:45:38;0.50;;;0.50;;
45944;SDS011;31655;48.972;10.686;2022-07-12T13:48:04;5.80;;;0.85;;
45944;SDS011;31655;48.972;10.686;2022-07-12T13:50:29;0.60;;;0.60;;
45944;SDS011;31655;48.972;10.686;2022-07-12T13:52:55;0.55;;;0.50;;
45944;SDS011;31655;48.972;10.686;2022-07-12T13:55:21;0.40;;;0.40;;
45944;SDS011;31655;48.972;10.686;2022-07-12T13:57:46;1.88;;;0.65;;
45944;SDS011;31655;48.972;10.686;2022-07-12T14:00:13;1.50;;;0.60;;
45944;SDS011;31655;48.972;10.686;2022-07-12T14:02:41;0.50;;;0.50;;
45944;SDS011;31655;48.972;10.686;2022-07-12T14:05:08;1.58;;;0.80;;
45944;SDS011;31655;48.972;10.686;2022-07-12T14:07:38;0.47;;;0.47;;
45944;SDS011;31655;48.972;10.686;2022-07-12T14:10:04;0.60;;;0.60;;
45944;SDS011;31655;48.972;10.686;2022-07-12T14:12:31;1.90;;;0.50;;
45944;SDS011;31655;48.972;10.686;2022-07-12T14:14:57;0.60;;;0.60;;
45944;SDS011;31655;48.972;10.686;2022-07-12T14:17:41;0.50;;;0.50;;
45944;SDS011;31655;48.972;10.686;2022-07-12T14:20:09;0.80;;;0.70;;
45944;SDS011;31655;48.972;10.686;2022-07-12T14:22:37;0.77;;;0.52;;
45944;SDS011;31655;48.972;10.686;2022-07-12T14:25:03;0.50;;;0.50;;
45944;SDS011;31655;48.972;10.686;2022-07-12T14:27:30;1.05;;;0.60;;
45944;SDS011;31655;48.972;10.686;2022-07-12T14:29:59;2.08;;;0.70;;
45944;SDS011;31655;48.972;10.686;2022-07-12T14:32:25;1.73;;;0.88;;
45944;SDS011;31655;48.972;10.686;2022-07-12T14:34:51;0.65;;;0.65;;
45944;SDS011;31655;48.972;10.686;2022-07-12T14:37:17;0.88;;;0.60;;
45944;SDS011;31655;48.972;10.686;2022-07-12T14:39:43;0.63;;;0.63;;
45944;SDS011;31655;48.972;10.686;2022-07-12T14:42:09;0.70;;;0.70;;
45944;SDS011;31655;48.972;10.686;2022-07-12T14:44:34;0.50;;;0.50;;
45944;SDS011;31655;48.972;10.686;2022-07-12T14:47:01;0.60;;;0.50;;
45944;SDS011;31655;48.972;10.686;2022-07-12T14:49:27;0.70;;;0.60;;
45944;SDS011;31655;48.972;10.686;2022-07-12T14:51:53;0.50;;;0.50;;
45944;SDS011;31655;48.972;10.686;2022-07-12T14:54:19;1.35;;;0.50;;
45944;SDS011;31655;48.972;10.686;2022-07-12T14:56:44;1.95;;;1.05;;
45944;SDS011;31655;48.972;10.686;2022-07-12T14:59:10;0.50;;;0.50;;
45944;SDS011;31655;48.972;10.686;2022-07-12T15:01:36;1.15;;;0.65;;